Time;durP1;ratioP1;P1;durP2;ratioP2;P2;SDS_P1;SDS_P2;PMS_P1;PMS_P2;Temp;Humidity;BMP_temperature;BMP_pressure;BME280_temperature;BME280_humidity;BME280_pressure;Samples;Min_cycle;Max_cycle;Signal;HPM_P1;HPM_P2
2021/05/19 00:00:08;;;;;;;2.05;1.80;;;11.20;99.90;;;;;;5092348;28;20675;-72
2021/05/19 00:02:34;;;;;;;2.35;2.15;;;11.20;99.90;;;;;;5092315;28;20270;-72
2021/05/19 00:05:01;;;;;;;2.20;2.00;;;11.20;99.90;;;;;;5091705;28;20289;-72
2021/05/19 00:07:27;;;;;;;4.18;2.30;;;11.20;99.90;;;;;;5092005;28;20240;-71
2021/05/19 00:09:53;;;;;;;2.03;1.80;;;11.30;99.90;;;;;;5091925;28;20664;-72
2021/05/19 00:12:21;;;;;;;3.38;2.40;;;11.30;99.90;;;;;;5091814;28;20321;-76
2021/05/19 00:14:47;;;;;;;3.75;2.05;;;11.30;99.90;;;;;;5091707;28;20251;-76
2021/05/19 00:17:13;;;;;;;2.28;2.08;;;11.30;99.90;;;;;;5092063;28;20312;-74
2021/05/19 00:19:40;;;;;;;4.53;2.20;;;11.30;99.90;;;;;;5091970;28;20198;-76
2021/05/19 00:22:06;;;;;;;2.80;2.47;;;11.30;99.90;;;;;;5091888;28;20668;-75
2021/05/19 00:24:32;;;;;;;2.15;1.95;;;11.40;99.90;;;;;;5091552;28;20202;-76
2021/05/19 00:26:59;;;;;;;2.30;2.10;;;11.40;99.90;;;;;;5094874;28;20226;-75
2021/05/19 00:29:26;;;;;;;2.13;2.03;;;11.40;99.90;;;;;;5095530;28;20206;-76
2021/05/19 00:31:52;;;;;;;2.20;2.00;;;11.40;99.90;;;;;;5082676;28;20309;-76
2021/05/19 00:34:18;;;;;;;2.92;2.20;;;11.40;99.90;;;;;;5076829;28;20290;-75
2021/05/19 00:36:45;;;;;;;2.10;2.00;;;11.40;99.90;;;;;;5075945;28;20657;-75
2021/05/19 00:39:12;;;;;;;2.42;2.22;;;11.40;99.90;;;;;;5076966;28;20289;-75
2021/05/19 00:41:39;;;;;;;2.30;2.10;;;11.40;99.90;;;;;;5076438;28;20226;-75
2021/05/19 00:44:07;;;;;;;4.75;2.03;;;11.40;99.90;;;;;;5077114;28;20242;-75
2021/05/19 00:46:35;;;;;;;2.25;2.00;;;11.40;99.90;;;;;;5076613;28;20231;-75
2021/05/19 00:49:04;;;;;;;2.78;2.00;;;11.50;99.90;;;;;;5076617;28;20657;-78
2021/05/19 00:51:30;;;;;;;2.75;2.08;;;11.40;99.90;;;;;;5076765;28;20309;-78
2021/05/19 00:53:57;;;;;;;2.47;2.17;;;11.40;99.90;;;;;;5076204;28;20211;-78
2021/05/19 00:56:24;;;;;;;3.03;2.10;;;11.50;99.90;;;;;;5076209;28;20318;-78
2021/05/19 00:58:54;;;;;;;2.88;2.05;;;11.50;99.90;;;;;;5076908;28;20203;-78
2021/05/19 01:01:20;;;;;;;1.85;1.70;;;11.50;99.90;;;;;;5080141;28;20285;-78
2021/05/19 01:03:48;;;;;;;2.53;1.73;;;11.50;99.90;;;;;;5080560;28;20658;-78
2021/05/19 01:06:20;;;;;;;2.20;2.00;;;11.50;99.90;;;;;;5076461;28;20223;-77
2021/05/19 01:11:31;;;;;;;2.45;2.28;;;11.50;99.90;;;;;;5078135;28;20233;-78
2021/05/19 01:13:58;;;;;;;3.03;2.40;;;11.50;99.90;;;;;;5075880;28;20556;-76
2021/05/19 01:16:25;;;;;;;2.38;2.17;;;11.50;99.90;;;;;;5075648;28;20227;-77
2021/05/19 01:18:53;;;;;;;2.90;1.88;;;11.40;99.90;;;;;;5076149;28;20207;-77
2021/05/19 01:21:20;;;;;;;2.58;2.28;;;11.50;99.90;;;;;;5075198;28;20205;-77
2021/05/19 01:23:48;;;;;;;2.50;2.30;;;11.50;99.90;;;;;;5075627;28;20595;-76
2021/05/19 01:26:15;;;;;;;1.85;1.75;;;11.50;99.90;;;;;;5079593;28;20300;-78
2021/05/19 01:28:42;;;;;;;3.15;2.10;;;11.50;99.90;;;;;;5081030;28;20285;-79
2021/05/19 01:31:10;;;;;;;2.25;2.05;;;11.50;99.90;;;;;;5076839;28;20229;-78
2021/05/19 01:33:37;;;;;;;2.35;2.15;;;11.50;99.90;;;;;;5076526;28;20205;-77
2021/05/19 01:36:03;;;;;;;2.70;2.20;;;11.50;99.90;;;;;;5075506;28;20260;-78
2021/05/19 01:38:30;;;;;;;3.45;2.17;;;11.50;99.90;;;;;;5076325;28;20206;-72
2021/05/19 01:40:57;;;;;;;2.10;1.90;;;11.40;99.90;;;;;;5075309;28;20261;-74
2021/05/19 01:43:30;;;;;;;2.83;2.63;;;11.40;99.90;;;;;;5075134;28;20293;-77
2021/05/19 01:45:59;;;;;;;2.28;2.08;;;11.40;99.90;;;;;;5075013;28;20294;-75
2021/05/19 01:48:26;;;;;;;6.68;2.33;;;11.40;99.90;;;;;;5075158;28;20202;-74
2021/05/19 01:50:52;;;;;;;4.93;2.70;;;11.40;99.90;;;;;;5074897;28;20352;-76
2021/05/19 01:53:19;;;;;;;2.10;1.95;;;11.40;99.90;;;;;;5075042;28;20217;-77
2021/05/19 01:55:46;;;;;;;2.88;2.20;;;11.40;99.90;;;;;;5074984;28;20309;-77
2021/05/19 01:58:13;;;;;;;2.30;2.10;;;11.40;99.90;;;;;;5075758;28;20314;-75
2021/05/19 02:00:40;;;;;;;2.53;2.17;;;11.40;99.90;;;;;;5075156;28;20293;-75
2021/05/19 02:03:07;;;;;;;2.47;2.28;;;11.40;99.90;;;;;;5074982;28;20202;-75
2021/05/19 02:05:36;;;;;;;2.70;2.50;;;11.40;99.90;;;;;;5074730;28;20236;-75
2021/05/19 02:08:05;;;;;;;3.00;2.70;;;11.40;99.90;;;;;;5074548;28;20262;-75
2021/05/19 02:10:32;;;;;;;3.00;2.80;;;11.40;99.90;;;;;;5074939;28;20306;-75
2021/05/19 02:12:59;;;;;;;2.50;2.30;;;11.40;99.90;;;;;;5075102;28;20213;-76
2021/05/19 02:15:27;;;;;;;2.67;2.47;;;11.40;99.90;;;;;;5074815;28;20203;-75
2021/05/19 02:17:53;;;;;;;2.75;2.10;;;11.40;99.90;;;;;;5074946;28;20766;-75
2021/05/19 02:20:22;;;;;;;3.20;2.90;;;11.40;99.90;;;;;;5074306;28;20649;-75
2021/05/19 02:22:48;;;;;;;2.70;2.50;;;11.40;99.90;;;;;;5074530;28;20230;-75
2021/05/19 02:25:18;;;;;;;3.15;2.60;;;11.40;99.90;;;;;;5074535;28;20260;-75
2021/05/19 02:27:45;;;;;;;3.60;2.70;;;11.40;99.90;;;;;;5074489;28;20229;-75
2021/05/19 02:30:13;;;;;;;3.35;2.60;;;11.40;99.90;;;;;;5074185;28;20211;-75
2021/05/19 02:32:40;;;;;;;2.60;2.40;;;11.40;99.90;;;;;;5073931;28;20322;-75
2021/05/19 02:35:09;;;;;;;3.10;2.80;;;11.40;99.90;;;;;;5074246;28;20207;-75
2021/05/19 02:37:35;;;;;;;2.67;2.47;;;11.40;99.90;;;;;;5074048;28;20707;-75
2021/05/19 02:40:02;;;;;;;2.72;2.45;;;11.40;99.90;;;;;;5074031;28;20207;-75
2021/05/19 02:42:28;;;;;;;4.53;2.92;;;11.40;99.90;;;;;;5073782;28;20198;-75
2021/05/19 02:44:55;;;;;;;4.28;2.70;;;11.40;99.90;;;;;;5074089;28;20209;-75
2021/05/19 02:47:21;;;;;;;2.97;2.60;;;11.40;99.90;;;;;;5073935;28;20629;-75
2021/05/19 02:49:48;;;;;;;4.45;2.78;;;11.40;99.90;;;;;;5073830;28;20582;-75
2021/05/19 02:52:14;;;;;;;3.90;2.38;;;11.40;99.90;;;;;;5073988;28;20309;-75
2021/05/19 02:54:41;;;;;;;5.45;3.10;;;11.40;99.90;;;;;;5074264;28;20344;-75
2021/05/19 02:57:08;;;;;;;3.15;2.85;;;11.30;99.90;;;;;;5073371;28;20342;-75
2021/05/19 02:59:35;;;;;;;6.03;2.70;;;11.30;99.90;;;;;;5074096;28;20290;-75
2021/05/19 03:02:01;;;;;;;3.13;2.80;;;11.30;99.90;;;;;;5073819;28;20230;-75
2021/05/19 03:04:28;;;;;;;3.03;2.65;;;11.30;99.90;;;;;;5074049;28;20289;-75
2021/05/19 03:06:55;;;;;;;2.80;2.40;;;11.30;99.90;;;;;;5073212;28;20772;-75
2021/05/19 03:09:21;;;;;;;3.80;2.45;;;11.30;99.90;;;;;;5073612;28;20297;-75
2021/05/19 03:11:48;;;;;;;3.05;2.75;;;11.30;99.90;;;;;;5073605;28;20226;-75
2021/05/19 03:14:14;;;;;;;3.63;2.50;;;11.30;99.90;;;;;;5073537;28;20202;-75
2021/05/19 03:16:41;;;;;;;2.65;2.45;;;11.40;99.90;;;;;;5073824;28;20222;-75
2021/05/19 03:19:08;;;;;;;3.30;2.25;;;11.40;99.90;;;;;;5074055;28;20234;-75
2021/05/19 03:21:35;;;;;;;2.42;2.22;;;11.40;99.90;;;;;;5073833;28;20290;-75
2021/05/19 03:24:02;;;;;;;2.65;2.45;;;11.40;99.90;;;;;;5073859;28;20305;-75
2021/05/19 03:26:28;;;;;;;2.55;2.17;;;11.40;99.90;;;;;;5073426;28;20602;-75
2021/05/19 03:28:55;;;;;;;5.30;2.50;;;11.30;99.90;;;;;;5073771;28;20202;-75
2021/05/19 03:31:21;;;;;;;3.00;2.17;;;11.30;99.90;;;;;;5073598;28;20311;-75
2021/05/19 03:33:48;;;;;;;2.53;2.33;;;11.20;99.90;;;;;;5073734;28;20301;-75
2021/05/19 03:36:14;;;;;;;3.10;2.13;;;11.30;99.90;;;;;;5073260;28;20229;-75
2021/05/19 03:38:41;;;;;;;2.97;2.70;;;11.30;99.90;;;;;;5073952;28;20294;-75
2021/05/19 03:41:08;;;;;;;2.45;2.05;;;11.30;99.90;;;;;;5073504;28;20297;-75
2021/05/19 03:43:36;;;;;;;3.80;2.30;;;11.30;99.90;;;;;;5073484;28;20251;-75
2021/05/19 03:46:02;;;;;;;3.13;2.40;;;11.40;99.90;;;;;;5073105;28;20207;-75
2021/05/19 03:48:28;;;;;;;2.72;2.47;;;11.30;99.90;;;;;;5073355;28;20203;-75
2021/05/19 03:50:55;;;;;;;2.33;2.13;;;11.30;99.90;;;;;;5073571;28;22078;-75
2021/05/19 03:53:22;;;;;;;2.85;2.30;;;11.30;99.90;;;;;;5072961;28;20211;-74
2021/05/19 03:55:49;;;;;;;2.50;2.30;;;11.30;99.90;;;;;;5072986;28;20644;-74
2021/05/19 03:58:16;;;;;;;4.03;2.30;;;11.30;99.90;;;;;;5073258;28;20680;-74
2021/05/19 04:00:43;;;;;;;3.47;2.60;;;11.30;99.90;;;;;;5076468;28;20297;-74
2021/05/19 04:03:09;;;;;;;2.55;2.35;;;11.30;99.90;;;;;;5076835;28;20234;-74
2021/05/19 04:05:36;;;;;;;3.53;2.75;;;11.30;99.90;;;;;;5077363;28;20289;-75
2021/05/19 04:08:03;;;;;;;3.33;3.03;;;11.30;99.90;;;;;;5076948;28;20227;-75
2021/05/19 04:10:30;;;;;;;3.30;3.00;;;11.20;99.90;;;;;;5076904;28;20256;-75
2021/05/19 04:12:56;;;;;;;3.15;2.85;;;11.20;99.90;;;;;;5077097;28;20314;-75
2021/05/19 04:15:25;;;;;;;4.72;2.80;;;11.30;99.90;;;;;;5076881;28;20289;-74
2021/05/19 04:17:51;;;;;;;3.38;2.45;;;11.40;99.90;;;;;;5076605;28;20286;-75
2021/05/19 04:20:18;;;;;;;5.07;3.28;;;11.30;99.90;;;;;;5076783;28;20289;-75
2021/05/19 04:22:45;;;;;;;3.10;2.80;;;11.30;99.90;;;;;;5076646;28;20285;-75
2021/05/19 04:25:13;;;;;;;2.80;2.55;;;11.40;99.90;;;;;;5076575;28;20294;-75
2021/05/19 04:27:39;;;;;;;3.10;2.80;;;11.40;99.90;;;;;;5076973;28;20253;-75
2021/05/19 04:30:07;;;;;;;3.47;2.95;;;11.30;99.90;;;;;;5076635;28;20202;-75
2021/05/19 04:32:35;;;;;;;3.92;3.00;;;11.30;99.90;;;;;;5076652;28;20226;-75
2021/05/19 04:35:01;;;;;;;3.65;2.95;;;11.30;99.90;;;;;;5076401;28;20210;-75
2021/05/19 04:37:28;;;;;;;3.47;3.03;;;11.30;99.90;;;;;;5076220;28;20313;-74
2021/05/19 04:39:54;;;;;;;3.60;3.30;;;11.40;99.90;;;;;;5076294;28;20695;-75
2021/05/19 04:42:20;;;;;;;3.45;3.15;;;11.30;99.90;;;;;;5076373;28;20243;-75
2021/05/19 04:44:47;;;;;;;2.60;2.40;;;11.40;99.90;;;;;;5076688;28;20203;-75
2021/05/19 04:47:13;;;;;;;4.25;3.00;;;11.40;99.90;;;;;;5075723;28;20354;-75
2021/05/19 04:49:41;;;;;;;4.45;4.05;;;11.30;99.90;;;;;;5076098;28;20298;-75
2021/05/19 04:52:07;;;;;;;3.80;3.45;;;11.40;99.90;;;;;;5075956;28;20234;-75
2021/05/19 04:54:34;;;;;;;4.68;3.08;;;11.40;99.90;;;;;;5076268;28;20202;-75
2021/05/19 04:57:01;;;;;;;4.68;3.20;;;11.40;99.90;;;;;;5075612;28;20253;-75
2021/05/19 04:59:27;;;;;;;4.22;3.42;;;11.40;99.90;;;;;;5076542;28;20210;-75
2021/05/19 05:01:53;;;;;;;3.80;3.40;;;11.40;99.90;;;;;;5076209;28;20290;-75
2021/05/19 05:04:20;;;;;;;5.10;3.20;;;11.40;99.90;;;;;;5075615;28;20293;-75
2021/05/19 05:06:47;;;;;;;3.83;3.40;;;11.40;99.90;;;;;;5075994;28;20313;-75
2021/05/19 05:09:13;;;;;;;3.72;2.90;;;11.40;99.90;;;;;;5075942;28;20763;-75
2021/05/19 05:11:39;;;;;;;4.55;3.60;;;11.50;99.90;;;;;;5075225;28;20308;-75
2021/05/19 05:14:06;;;;;;;3.88;3.47;;;11.50;99.90;;;;;;5076046;28;20209;-75
2021/05/19 05:16:32;;;;;;;4.82;3.50;;;11.50;99.90;;;;;;5075396;28;20227;-75
2021/05/19 05:18:59;;;;;;;4.10;3.67;;;11.60;99.90;;;;;;5075408;28;20199;-75
2021/05/19 05:21:25;;;;;;;3.65;3.30;;;11.60;99.90;;;;;;5075426;28;20195;-75
2021/05/19 05:23:52;;;;;;;3.40;3.10;;;11.60;99.90;;;;;;5075650;28;20199;-75
2021/05/19 05:26:19;;;;;;;4.03;3.60;;;11.60;99.90;;;;;;5075109;28;20219;-74
2021/05/19 05:28:45;;;;;;;5.35;3.70;;;11.60;99.90;;;;;;5075395;28;20199;-75
2021/05/19 05:31:12;;;;;;;6.10;3.25;;;11.60;99.90;;;;;;5075262;28;20227;-75
2021/05/19 05:33:38;;;;;;;4.75;3.40;;;11.70;99.90;;;;;;5075276;28;20293;-75
2021/05/19 05:36:05;;;;;;;5.18;4.28;;;11.70;99.90;;;;;;5074896;28;20298;-75
2021/05/19 05:38:32;;;;;;;4.20;3.65;;;11.70;99.90;;;;;;5075602;28;20198;-75
2021/05/19 05:40:59;;;;;;;4.10;3.70;;;11.70;99.90;;;;;;5075378;28;20326;-75
2021/05/19 05:43:25;;;;;;;5.00;3.70;;;11.80;99.90;;;;;;5075444;28;20203;-75
2021/05/19 05:45:52;;;;;;;5.20;3.97;;;11.80;99.90;;;;;;5074835;28;20255;-75
2021/05/19 05:48:18;;;;;;;4.22;3.60;;;11.90;99.90;;;;;;5075061;28;20344;-75
2021/05/19 05:50:44;;;;;;;4.50;3.53;;;11.90;99.90;;;;;;5074932;28;20206;-75
2021/05/19 05:53:11;;;;;;;3.70;3.30;;;11.90;99.90;;;;;;5074561;28;20317;-75
2021/05/19 05:55:37;;;;;;;6.93;4.38;;;12.00;99.90;;;;;;5074999;28;20298;-75
2021/05/19 05:58:04;;;;;;;5.28;4.10;;;11.90;99.90;;;;;;5074400;28;20300;-75
2021/05/19 06:00:30;;;;;;;5.90;4.00;;;12.00;99.90;;;;;;5074479;28;20252;-75
2021/05/19 06:02:57;;;;;;;4.28;3.88;;;11.90;99.90;;;;;;5074535;28;20209;-75
2021/05/19 06:05:23;;;;;;;5.03;3.90;;;12.00;99.90;;;;;;5074498;28;20256;-75
2021/05/19 06:07:49;;;;;;;6.28;4.40;;;12.00;99.90;;;;;;5075056;28;20311;-75
2021/05/19 06:10:16;;;;;;;4.50;4.05;;;12.00;99.90;;;;;;5074831;28;20220;-75
2021/05/19 06:12:43;;;;;;;4.15;3.75;;;12.10;99.90;;;;;;5074771;28;20750;-75
2021/05/19 06:15:10;;;;;;;4.40;4.00;;;12.10;99.90;;;;;;5074512;28;20294;-75
2021/05/19 06:17:36;;;;;;;4.55;4.15;;;12.10;99.90;;;;;;5074444;28;20321;-75
2021/05/19 06:20:04;;;;;;;5.20;4.70;;;12.10;99.90;;;;;;5074568;28;20293;-75
2021/05/19 06:22:31;;;;;;;5.13;4.63;;;12.10;99.90;;;;;;5073958;28;20198;-75
2021/05/19 06:24:57;;;;;;;4.82;4.32;;;12.20;99.90;;;;;;5074553;28;20213;-75
2021/05/19 06:27:24;;;;;;;5.60;4.53;;;12.20;99.90;;;;;;5073815;28;20596;-75
2021/05/19 06:29:50;;;;;;;5.00;4.30;;;12.20;99.90;;;;;;5074477;28;20622;-75
2021/05/19 06:32:17;;;;;;;8.60;4.60;;;12.20;99.90;;;;;;5074184;28;20227;-75
2021/05/19 06:34:43;;;;;;;4.50;3.90;;;12.20;99.90;;;;;;5074350;28;20206;-75
2021/05/19 06:37:10;;;;;;;5.78;3.85;;;12.20;99.90;;;;;;5073489;28;20762;-75
2021/05/19 06:39:37;;;;;;;7.25;4.55;;;12.40;99.90;;;;;;5074664;28;20293;-75
2021/05/19 06:42:03;;;;;;;6.28;4.53;;;12.30;99.90;;;;;;5074393;28;20198;-75
2021/05/19 06:44:30;;;;;;;5.20;4.70;;;12.50;99.90;;;;;;5073799;28;20730;-75
2021/05/19 06:46:56;;;;;;;8.27;4.85;;;12.30;99.90;;;;;;5073881;28;20568;-75
2021/05/19 06:49:23;;;;;;;5.20;4.50;;;12.40;99.90;;;;;;5073762;28;20241;-75
2021/05/19 06:51:50;;;;;;;6.13;4.70;;;12.50;99.90;;;;;;5074376;28;20214;-75
2021/05/19 06:54:16;;;;;;;4.85;4.38;;;12.60;99.90;;;;;;5074099;28;20250;-75
2021/05/19 06:56:44;;;;;;;4.38;3.90;;;12.80;99.90;;;;;;5073437;28;20258;-75
2021/05/19 06:59:12;;;;;;;5.45;3.90;;;13.20;99.90;;;;;;5073851;28;20207;-76
2021/05/19 07:01:38;;;;;;;5.38;4.47;;;13.50;99.90;;;;;;5073900;28;20587;-75
2021/05/19 07:04:05;;;;;;;4.38;3.97;;;13.60;99.90;;;;;;5073818;28;20618;-75
2021/05/19 07:06:32;;;;;;;4.93;4.10;;;13.60;99.90;;;;;;5073368;28;20704;-75
2021/05/19 07:08:59;;;;;;;5.18;4.20;;;13.40;99.90;;;;;;5074194;28;20234;-75
2021/05/19 07:11:25;;;;;;;5.03;4.45;;;13.50;99.90;;;;;;5073365;28;20223;-75
2021/05/19 07:13:53;;;;;;;7.38;4.47;;;13.50;99.90;;;;;;5073802;28;20286;-75
2021/05/19 07:16:23;;;;;;;5.45;4.70;;;13.50;99.90;;;;;;5073572;28;20222;-75
2021/05/19 07:18:49;;;;;;;5.78;4.90;;;13.10;99.90;;;;;;5074282;28;20213;-75
2021/05/19 07:21:15;;;;;;;5.35;4.18;;;13.10;99.90;;;;;;5074169;28;20293;-75
2021/05/19 07:23:43;;;;;;;4.72;3.90;;;13.20;99.90;;;;;;5073674;28;20297;-75
2021/05/19 07:26:09;;;;;;;5.00;4.53;;;13.20;99.90;;;;;;5073202;28;20242;-75
2021/05/19 07:28:35;;;;;;;4.80;4.30;;;13.30;99.90;;;;;;5073875;28;20272;-75
2021/05/19 07:31:02;;;;;;;7.05;4.20;;;13.40;99.90;;;;;;5073513;28;20249;-75
2021/05/19 07:33:28;;;;;;;4.00;3.60;;;13.70;99.90;;;;;;5073832;28;20345;-76
2021/05/19 07:35:55;;;;;;;4.72;4.32;;;13.80;99.90;;;;;;5076869;28;20293;-76
2021/05/19 07:38:21;;;;;;;4.53;3.85;;;13.50;99.90;;;;;;5077173;28;20259;-76
2021/05/19 07:40:48;;;;;;;5.13;4.63;;;13.20;99.90;;;;;;5077345;28;20297;-76
2021/05/19 07:43:16;;;;;;;5.18;4.30;;;13.20;99.90;;;;;;5078113;28;20203;-76
2021/05/19 07:45:42;;;;;;;4.43;4.03;;;13.00;99.90;;;;;;5077684;28;20217;-75
2021/05/19 07:48:10;;;;;;;6.22;4.90;;;12.70;99.90;;;;;;5079044;28;20309;-75
2021/05/19 07:50:37;;;;;;;8.15;4.65;;;12.60;99.90;;;;;;5077891;28;20285;-76
2021/05/19 07:53:04;;;;;;;4.68;4.28;;;12.60;99.90;;;;;;5077737;28;20229;-76
2021/05/19 07:55:42;;;;;;;4.80;4.30;;;12.50;99.90;;;;;;5077825;28;20206;-75
2021/05/19 07:58:14;;;;;;;4.80;4.40;;;12.50;99.90;;;;;;5078383;28;20272;-76
2021/05/19 08:00:50;;;;;;;7.53;4.82;;;12.60;99.90;;;;;;5078414;28;20209;-76
2021/05/19 08:03:17;;;;;;;7.78;4.97;;;12.40;99.90;;;;;;5077953;28;20292;-76
2021/05/19 08:05:44;;;;;;;6.70;4.65;;;12.50;99.90;;;;;;5077705;28;20289;-76
2021/05/19 08:08:11;;;;;;;4.82;4.07;;;12.50;99.90;;;;;;5078755;28;20230;-74
2021/05/19 08:10:38;;;;;;;5.50;3.97;;;12.60;99.90;;;;;;5082989;28;20362;-74
2021/05/19 08:13:04;;;;;;;4.22;3.67;;;12.60;99.90;;;;;;5087581;28;20575;-74
2021/05/19 08:15:31;;;;;;;6.80;4.40;;;12.70;99.90;;;;;;5090827;28;20232;-74
2021/05/19 08:17:58;;;;;;;5.38;4.20;;;12.90;99.90;;;;;;5097711;28;20226;-74
2021/05/19 08:20:24;;;;;;;4.43;3.80;;;13.10;99.90;;;;;;5097428;28;20297;-75
2021/05/19 08:22:50;;;;;;;4.07;3.67;;;13.20;99.90;;;;;;5097070;28;20198;-74
2021/05/19 08:25:17;;;;;;;4.63;3.65;;;13.40;99.90;;;;;;5096722;28;20229;-74
2021/05/19 08:27:44;;;;;;;4.47;3.90;;;13.60;99.90;;;;;;5096367;28;20260;-74
2021/05/19 08:30:12;;;;;;;4.53;4.07;;;13.80;99.90;;;;;;5097153;28;20564;-75
2021/05/19 08:32:39;;;;;;;7.00;3.95;;;14.10;99.90;;;;;;5096652;28;20230;-74
2021/05/19 08:35:07;;;;;;;4.65;4.25;;;14.00;99.90;;;;;;5096698;28;20251;-75
2021/05/19 08:37:33;;;;;;;5.38;4.50;;;13.90;99.90;;;;;;5096739;28;20313;-74
2021/05/19 08:40:00;;;;;;;5.38;4.85;;;13.70;99.90;;;;;;5096825;28;20235;-74
2021/05/19 08:42:26;;;;;;;7.85;4.75;;;13.60;99.90;;;;;;5096869;28;20305;-74
2021/05/19 08:44:54;;;;;;;5.85;4.80;;;13.50;99.90;;;;;;5096787;28;20208;-74
2021/05/19 08:47:23;;;;;;;4.68;4.10;;;13.30;99.90;;;;;;5094940;28;20704;-74
2021/05/19 08:49:51;;;;;;;4.72;3.70;;;13.20;99.90;;;;;;5096603;28;20206;-74
2021/05/19 08:52:18;;;;;;;3.80;3.50;;;13.10;99.90;;;;;;5096039;28;20229;-74
2021/05/19 08:54:44;;;;;;;4.78;4.00;;;13.10;99.90;;;;;;5096318;28;20291;-74
2021/05/19 08:57:11;;;;;;;4.50;3.40;;;13.10;99.90;;;;;;5095716;28;20254;-74
2021/05/19 08:59:38;;;;;;;5.18;4.22;;;12.80;99.90;;;;;;5095950;28;20210;-74
2021/05/19 09:02:12;;;;;;;4.88;3.85;;;13.00;99.90;;;;;;5096219;28;20298;-74
2021/05/19 09:04:38;;;;;;;4.38;3.97;;;12.80;99.90;;;;;;5096432;28;20229;-74
2021/05/19 09:07:07;;;;;;;4.43;3.92;;;12.90;99.90;;;;;;5096023;28;20305;-74
2021/05/19 09:09:34;;;;;;;3.60;3.25;;;13.20;99.90;;;;;;5096644;28;20534;-74
2021/05/19 09:12:03;;;;;;;3.42;3.10;;;14.80;99.90;;;;;;5095548;28;20220;-74
2021/05/19 09:14:32;;;;;;;3.72;3.40;;;16.80;99.90;;;;;;5095781;28;20205;-75
2021/05/19 09:17:18;;;;;;;3.23;2.30;;;19.00;99.90;;;;;;5095299;28;20311;-75
2021/05/19 09:19:44;;;;;;;2.77;2.13;;;20.90;94.70;;;;;;5096382;28;20440;-75
2021/05/19 09:22:18;;;;;;;3.30;2.57;;;22.30;84.50;;;;;;5096117;28;20957;-75
2021/05/19 09:24:44;;;;;;;2.43;2.20;;;22.60;78.80;;;;;;5095821;28;20888;-75
2021/05/19 09:27:10;;;;;;;3.10;2.70;;;21.80;78.00;;;;;;5095688;28;20558;-75
2021/05/19 09:29:38;;;;;;;1.80;1.70;;;21.90;83.90;;;;;;5095847;28;20589;-75
2021/05/19 09:32:06;;;;;;;2.27;1.90;;;22.30;68.50;;;;;;5095785;28;20480;-75
2021/05/19 09:34:35;;;;;;;1.50;1.40;;;22.80;74.50;;;;;;5095908;28;20533;-75
2021/05/19 09:37:24;;;;;;;1.80;1.70;;;24.10;63.80;;;;;;5095071;28;20844;-75
2021/05/19 09:39:55;;;;;;;1.40;1.30;;;24.20;62.10;;;;;;5095423;28;20445;-75
2021/05/19 09:42:24;;;;;;;1.73;1.57;;;23.40;56.10;;;;;;5095638;28;20822;-75
2021/05/19 09:44:52;;;;;;;1.90;1.80;;;24.00;58.40;;;;;;5095690;28;20447;-75
2021/05/19 09:47:37;;;;;;;1.87;1.77;;;24.60;53.30;;;;;;5094803;28;20467;-75
2021/05/19 09:50:04;;;;;;;1.50;1.40;;;25.10;51.90;;;;;;5095303;28;20443;-75
2021/05/19 09:52:32;;;;;;;1.60;1.50;;;24.80;55.20;;;;;;5094898;28;20484;-75
2021/05/19 09:55:07;;;;;;;1.77;1.67;;;25.70;54.80;;;;;;5095252;28;20535;-75
2021/05/19 09:57:44;;;;;;;1.80;1.70;;;26.40;51.90;;;;;;5095061;28;20468;-75
2021/05/19 10:00:13;;;;;;;2.53;1.60;;;25.90;50.20;;;;;;5095044;28;20526;-75
2021/05/19 10:02:40;;;;;;;1.50;1.40;;;24.90;52.90;;;;;;5095064;28;20523;-76
2021/05/19 10:05:14;;;;;;;2.20;1.73;;;25.20;53.50;;;;;;5095161;28;20517;-76
2021/05/19 10:07:42;;;;;;;1.73;1.63;;;24.70;52.50;;;;;;5094500;28;20981;-75
2021/05/19 10:10:09;;;;;;;1.83;1.20;;;24.80;54.70;;;;;;5095204;28;20525;-75
2021/05/19 10:12:38;;;;;;;2.00;1.90;;;25.60;47.80;;;;;;5094448;28;20867;-76
2021/05/19 10:15:10;;;;;;;1.00;1.00;;;26.10;45.90;;;;;;5094607;28;20512;-75
2021/05/19 10:17:39;;;;;;;1.60;1.50;;;25.50;46.20;;;;;;5094766;28;20471;-75
2021/05/19 10:20:06;;;;;;;1.90;1.30;;;24.80;48.20;;;;;;5094805;28;21006;-75
2021/05/19 10:22:35;;;;;;;1.27;1.17;;;23.60;48.10;;;;;;5094970;28;20439;-75
2021/05/19 10:25:06;;;;;;;2.73;1.60;;;22.70;53.10;;;;;;5094320;28;20483;-75
2021/05/19 10:27:48;;;;;;;1.30;1.20;;;23.40;50.20;;;;;;5094244;28;21042;-75
2021/05/19 10:30:33;;;;;;;1.00;1.00;;;24.00;51.10;;;;;;5094975;28;20441;-75
2021/05/19 10:33:00;;;;;;;1.00;1.00;;;23.70;46.40;;;;;;5094722;28;20559;-75
2021/05/19 10:35:30;;;;;;;1.93;0.83;;;23.60;46.30;;;;;;5094202;28;20440;-75
2021/05/19 10:37:56;;;;;;;1.10;1.10;;;22.60;47.70;;;;;;5094037;28;20980;-75
2021/05/19 10:40:31;;;;;;;1.03;1.00;;;20.80;50.00;;;;;;5094259;28;20523;-75
2021/05/19 10:43:03;;;;;;;1.50;1.00;;;19.80;53.70;;;;;;5094450;28;20938;-75
2021/05/19 10:45:29;;;;;;;2.50;1.20;;;19.90;56.70;;;;;;5094427;28;20465;-74
2021/05/19 10:47:56;;;;;;;0.70;0.70;;;19.40;54.50;;;;;;5094070;28;20469;-74
2021/05/19 10:50:32;;;;;;;0.70;0.70;;;19.30;52.70;;;;;;5093998;28;20444;-74
2021/05/19 10:58:42;;;;;;;1.48;1.38;;;19.20;56.10;;;;;;5094112;28;20552;-74
2021/05/19 11:01:10;;;;;;;1.10;1.00;;;18.90;56.20;;;;;;5094144;28;20537;-74
2021/05/19 11:03:36;;;;;;;1.45;1.20;;;18.70;55.60;;;;;;5093899;28;20199;-74
2021/05/19 11:06:09;;;;;;;2.60;1.30;;;18.50;61.30;;;;;;5093720;28;20754;-74
2021/05/19 11:08:35;;;;;;;2.00;1.27;;;18.20;56.30;;;;;;5094283;28;20206;-74
2021/05/19 11:11:31;;;;;;;1.40;1.30;;;17.80;57.80;;;;;;5093743;28;20209;-74
2021/05/19 11:14:02;;;;;;;1.52;1.02;;;17.70;59.40;;;;;;5094114;28;20206;-74
2021/05/19 11:16:43;;;;;;;1.23;1.20;;;17.90;59.30;;;;;;5093580;28;20242;-74
2021/05/19 11:19:13;;;;;;;1.35;1.20;;;17.50;57.60;;;;;;5093849;28;20194;-74
2021/05/19 11:21:39;;;;;;;1.65;1.55;;;17.40;59.90;;;;;;5093624;28;20205;-74
2021/05/19 11:24:11;;;;;;;1.40;1.20;;;17.50;63.70;;;;;;5093735;28;20210;-74
2021/05/19 11:26:41;;;;;;;1.40;1.30;;;17.80;61.30;;;;;;5093352;28;20275;-74
2021/05/19 11:29:10;;;;;;;1.30;1.20;;;17.80;61.30;;;;;;5094358;28;20387;-74
2021/05/19 11:31:41;;;;;;;1.95;1.45;;;17.60;62.10;;;;;;5093587;28;20548;-74
2021/05/19 11:34:08;;;;;;;1.60;1.50;;;17.40;64.40;;;;;;5093805;28;20217;-74
2021/05/19 11:36:40;;;;;;;1.60;1.50;;;17.60;63.40;;;;;;5093387;28;20229;-74
2021/05/19 11:39:32;;;;;;;1.42;1.33;;;17.90;60.00;;;;;;5094169;28;20533;-74
2021/05/19 11:42:14;;;;;;;1.23;1.10;;;17.90;60.40;;;;;;5093976;28;20198;-74
2021/05/19 11:44:42;;;;;;;1.38;1.27;;;17.80;58.90;;;;;;5093486;28;20655;-74
2021/05/19 11:47:09;;;;;;;2.47;1.80;;;17.20;57.70;;;;;;5093185;28;20310;-74
2021/05/19 11:49:36;;;;;;;3.70;1.50;;;16.90;60.50;;;;;;5093818;28;20294;-74
2021/05/19 11:52:03;;;;;;;2.28;1.38;;;17.20;62.90;;;;;;5093707;28;20616;-74
2021/05/19 11:54:29;;;;;;;1.60;1.17;;;17.40;63.00;;;;;;5093344;28;20206;-74
2021/05/19 11:56:59;;;;;;;1.42;1.30;;;17.70;60.60;;;;;;5093441;28;20312;-74
2021/05/19 11:59:29;;;;;;;1.65;1.55;;;17.70;63.60;;;;;;5093380;28;20641;-74
2021/05/19 12:01:58;;;;;;;1.60;1.50;;;17.70;64.10;;;;;;5093664;28;20233;-74
2021/05/19 12:04:25;;;;;;;1.10;1.10;;;17.60;59.60;;;;;;5093743;28;20215;-74
2021/05/19 12:06:51;;;;;;;1.73;1.63;;;17.50;56.40;;;;;;5093062;28;20639;-74
2021/05/19 12:09:18;;;;;;;3.08;1.00;;;17.30;58.30;;;;;;5093340;28;20247;-74
2021/05/19 12:11:45;;;;;;;1.23;1.13;;;17.50;60.10;;;;;;5093317;28;20240;-74
2021/05/19 12:14:12;;;;;;;3.15;1.35;;;17.40;58.30;;;;;;5093472;28;20545;-74
2021/05/19 12:16:41;;;;;;;1.35;1.25;;;17.70;56.80;;;;;;5092875;28;20253;-74
2021/05/19 12:19:11;;;;;;;1.30;1.20;;;17.60;54.00;;;;;;5093582;28;20206;-74
2021/05/19 12:21:39;;;;;;;1.60;1.50;;;17.70;58.10;;;;;;5095923;28;20621;-74
2021/05/19 12:24:07;;;;;;;1.60;1.50;;;17.80;54.70;;;;;;5096731;28;20636;-74
2021/05/19 12:26:34;;;;;;;1.48;1.38;;;17.90;56.50;;;;;;5096498;28;20233;-74
2021/05/19 12:29:00;;;;;;;1.50;1.38;;;18.10;56.90;;;;;;5097260;28;20289;-74
2021/05/19 12:31:29;;;;;;;1.38;1.27;;;18.10;53.70;;;;;;5097180;28;20248;-74
2021/05/19 12:33:57;;;;;;;3.40;1.40;;;18.20;56.60;;;;;;5096997;28;20224;-74
2021/05/19 12:36:26;;;;;;;3.63;1.40;;;18.10;54.40;;;;;;5096071;28;20783;-74
2021/05/19 12:38:55;;;;;;;2.55;1.25;;;17.80;54.00;;;;;;5096657;28;20664;-74
2021/05/19 12:41:45;;;;;;;1.00;1.00;;;18.10;56.70;;;;;;5096748;28;20198;-74
2021/05/19 12:44:14;;;;;;;2.65;1.20;;;18.50;57.90;;;;;;5096866;28;20293;-74
2021/05/19 12:46:40;;;;;;;1.48;1.38;;;18.60;55.30;;;;;;5096080;28;20251;-74
2021/05/19 12:49:14;;;;;;;1.45;1.35;;;18.60;56.30;;;;;;5096462;28;20339;-74
2021/05/19 12:51:51;;;;;;;1.50;1.40;;;18.30;52.70;;;;;;5096704;28;20202;-74
2021/05/19 12:54:23;;;;;;;1.75;1.10;;;17.90;54.30;;;;;;5096477;28;20210;-74
2021/05/19 12:57:09;;;;;;;0.90;0.90;;;18.00;57.10;;;;;;5095874;28;20226;-74
2021/05/19 12:59:53;;;;;;;1.60;1.42;;;17.90;51.40;;;;;;5096415;28;20544;-74